createdAt,value
2018-03-04T00:00:29.586Z,19.35
2018-03-04T00:02:58.882Z,20.00
2018-03-04T00:05:28.017Z,19.87
2018-03-04T00:07:57.266Z,20.98
2018-03-04T00:10:26.345Z,19.42
2018-03-04T00:12:55.433Z,20.95
2018-03-04T00:15:25.281Z,21.05
2018-03-04T00:17:54.410Z,21.90
2018-03-04T00:20:23.498Z,21.27
2018-03-04T00:22:52.585Z,21.35
2018-03-04T00:25:22.441Z,20.83
2018-03-04T00:27:51.569Z,21.15
2018-03-04T00:30:20.666Z,19.73
2018-03-04T00:32:49.793Z,21.40
2018-03-04T00:35:18.877Z,21.27
2018-03-04T00:37:48.025Z,24.37
2018-03-04T00:40:17.109Z,22.20
2018-03-04T00:42:46.200Z,23.95
2018-03-04T00:45:16.050Z,20.55
2018-03-04T00:47:45.189Z,21.02
2018-03-04T00:50:14.276Z,21.83
2018-03-04T00:52:43.358Z,21.92
2018-03-04T00:55:13.206Z,22.48
2018-03-04T00:57:42.329Z,22.25
2018-03-04T01:00:11.426Z,22.75
2018-03-04T01:02:40.514Z,22.80
2018-03-04T01:05:10.369Z,21.90
2018-03-04T01:07:39.456Z,23.10
2018-03-04T01:10:09.310Z,21.40
2018-03-04T01:12:38.399Z,21.40
2018-03-04T01:15:07.537Z,21.77
2018-03-04T01:17:36.622Z,21.83
2018-03-04T01:20:05.710Z,22.33
2018-03-04T01:22:35.566Z,22.08
2018-03-04T01:25:04.646Z,22.92
2018-03-04T01:27:34.544Z,24.30
2018-03-04T01:30:03.641Z,23.12
2018-03-04T01:32:33.494Z,23.85
2018-03-04T01:35:04.094Z,23.75
2018-03-04T01:37:33.194Z,22.45
2018-03-04T01:40:02.282Z,21.90
2018-03-04T01:42:32.232Z,23.95
2018-03-04T01:45:02.090Z,23.70
2018-03-04T01:47:31.178Z,23.20
2018-03-04T01:50:00.320Z,24.55
2018-03-04T01:52:29.410Z,23.73
2018-03-04T01:54:58.577Z,24.40
2018-03-04T01:57:27.649Z,24.98
2018-03-04T01:59:56.746Z,24.80
2018-03-04T02:02:25.856Z,22.95
2018-03-04T02:04:54.945Z,24.92
2018-03-04T02:07:24.081Z,22.90
2018-03-04T02:09:53.161Z,24.15
2018-03-04T02:12:22.249Z,24.77
2018-03-04T02:14:51.397Z,24.00
2018-03-04T02:17:20.481Z,22.87
2018-03-04T02:19:50.325Z,21.45
2018-03-04T02:22:19.437Z,23.60
2018-03-04T02:24:48.578Z,24.73
2018-03-04T02:27:17.662Z,23.90
2018-03-04T02:29:46.753Z,26.33
2018-03-04T02:32:16.642Z,25.30
2018-03-04T02:34:45.770Z,23.70
2018-03-04T02:37:14.883Z,24.05
2018-03-04T02:39:43.998Z,27.00
2018-03-04T02:42:13.085Z,24.45
2018-03-04T02:44:42.238Z,25.35
2018-03-04T02:47:12.183Z,24.48
2018-03-04T02:49:41.269Z,25.65
2018-03-04T02:52:11.127Z,24.35
2018-03-04T02:54:40.281Z,25.17
2018-03-04T02:57:09.394Z,26.45
2018-03-04T02:59:38.568Z,25.35
2018-03-04T03:02:07.690Z,25.60
2018-03-04T03:04:36.778Z,23.12
2018-03-04T03:07:05.895Z,25.00
2018-03-04T03:09:35.022Z,22.83
2018-03-04T03:12:04.122Z,24.23
2018-03-04T03:14:33.437Z,24.05
2018-03-04T03:17:03.352Z,25.27
2018-03-04T03:19:33.237Z,27.35
2018-03-04T03:22:03.826Z,26.23
2018-03-04T03:24:32.909Z,25.70
2018-03-04T03:27:02.791Z,25.33
2018-03-04T03:29:31.904Z,26.90
2018-03-04T03:32:01.050Z,26.70
2018-03-04T03:34:30.129Z,26.75
2018-03-04T03:36:59.217Z,26.33
2018-03-04T03:39:28.297Z,26.62
2018-03-04T03:41:58.167Z,26.25
2018-03-04T03:44:27.261Z,24.98
2018-03-04T03:46:56.414Z,26.27
2018-03-04T03:49:25.502Z,25.37
2018-03-04T03:51:54.665Z,25.70
2018-03-04T03:54:23.797Z,27.13
2018-03-04T03:56:52.885Z,24.77
2018-03-04T03:59:22.740Z,26.42
2018-03-04T04:01:51.837Z,25.20
2018-03-04T04:04:20.941Z,26.67
2018-03-04T04:06:50.026Z,27.05
2018-03-04T04:09:19.873Z,28.83
2018-03-04T04:11:49.725Z,23.83
2018-03-04T04:14:18.845Z,27.30
2018-03-04T04:16:47.925Z,28.25
2018-03-04T04:19:17.779Z,25.48
2018-03-04T04:21:46.865Z,25.85
2018-03-04T04:24:16.788Z,25.92
2018-03-04T04:26:46.665Z,26.27
2018-03-04T04:29:15.748Z,25.37
2018-03-04T04:31:44.871Z,27.55
2018-03-04T04:34:13.966Z,24.83
2018-03-04T04:36:43.057Z,26.73
2018-03-04T04:39:12.981Z,26.60
2018-03-04T04:41:42.839Z,27.23
2018-03-04T04:44:11.924Z,26.73
2018-03-04T04:46:41.789Z,26.87
2018-03-04T04:49:10.869Z,26.52
2018-03-04T04:51:40.755Z,27.27
2018-03-04T04:54:10.619Z,27.50
2018-03-04T04:56:40.555Z,35.10
2018-03-04T04:59:10.414Z,28.33
2018-03-04T05:01:39.520Z,29.87
2018-03-04T05:04:08.666Z,28.50
2018-03-04T05:06:37.754Z,30.37
2018-03-04T05:09:06.842Z,27.62
2018-03-04T05:11:35.959Z,27.90
2018-03-04T05:14:05.191Z,26.70
2018-03-04T05:16:35.102Z,26.73
2018-03-04T05:19:04.317Z,29.00
2018-03-04T05:21:33.402Z,26.62
2018-03-04T05:24:03.291Z,27.55
2018-03-04T05:26:32.382Z,28.27
2018-03-04T05:29:01.482Z,26.75
2018-03-04T05:31:30.570Z,29.70
2018-03-04T05:33:59.661Z,27.73
2018-03-04T05:36:29.522Z,26.23
2018-03-04T05:38:58.646Z,27.58
2018-03-04T05:41:28.618Z,28.98
2018-03-04T05:43:58.465Z,27.15
2018-03-04T05:46:27.545Z,26.17
2018-03-04T05:48:56.670Z,25.88
2018-03-04T05:51:26.597Z,28.25
2018-03-04T05:53:56.469Z,27.67
2018-03-04T05:56:25.554Z,26.85
2018-03-04T05:58:54.637Z,27.62
2018-03-04T06:01:23.759Z,26.90
2018-03-04T06:03:53.615Z,28.45
2018-03-04T06:06:23.717Z,27.48
2018-03-04T06:08:53.565Z,27.45
2018-03-04T06:11:22.740Z,28.77
2018-03-04T06:13:52.696Z,26.73
2018-03-04T06:16:22.610Z,27.25
2018-03-04T06:18:51.706Z,24.95
2018-03-04T06:21:21.139Z,27.30
2018-03-04T06:23:50.347Z,25.90
2018-03-04T06:26:19.469Z,27.25
2018-03-04T06:28:49.417Z,27.90
2018-03-04T06:31:19.359Z,26.02
2018-03-04T06:33:48.442Z,25.00
2018-03-04T06:36:18.289Z,27.30
2018-03-04T06:38:47.373Z,27.90
2018-03-04T06:41:16.454Z,27.02
2018-03-04T06:43:45.592Z,25.52
2018-03-04T06:46:14.698Z,28.70
2018-03-04T06:48:43.846Z,29.27
2018-03-04T06:51:12.949Z,25.30
2018-03-04T06:53:42.034Z,27.55
2018-03-04T06:56:11.130Z,26.65
2018-03-04T06:58:40.269Z,27.80
2018-03-04T07:01:10.118Z,26.55
2018-03-04T07:03:39.207Z,25.98
2018-03-04T07:06:09.086Z,28.80
2018-03-04T07:08:38.290Z,24.37
2018-03-04T07:11:07.398Z,27.92
2018-03-04T07:13:36.484Z,27.20
2018-03-04T07:16:05.619Z,27.52
2018-03-04T07:18:34.706Z,26.08
2018-03-04T07:21:03.790Z,26.20
2018-03-04T07:23:33.662Z,26.40
2018-03-04T07:26:02.753Z,26.30
2018-03-04T07:28:31.847Z,27.48
2018-03-04T07:31:01.726Z,26.37
2018-03-04T07:33:30.857Z,26.85
2018-03-04T07:35:59.946Z,29.42
2018-03-04T07:38:29.099Z,28.67
2018-03-04T07:40:58.954Z,25.50
2018-03-04T07:43:28.066Z,25.15
2018-03-04T07:45:57.206Z,26.75
2018-03-04T07:48:26.287Z,27.17
2018-03-04T07:50:55.502Z,25.37
2018-03-04T07:53:24.599Z,25.80
2018-03-04T07:55:54.458Z,27.60
2018-03-04T07:58:23.538Z,25.70
2018-03-04T08:00:52.666Z,24.17
2018-03-04T08:03:21.761Z,24.92
2018-03-04T08:05:50.886Z,25.60
2018-03-04T08:08:19.981Z,26.23
2018-03-04T08:10:49.071Z,26.55
2018-03-04T08:13:18.213Z,26.55
2018-03-04T08:15:47.310Z,27.73
2018-03-04T08:18:17.152Z,24.80
2018-03-04T08:20:46.285Z,25.30
2018-03-04T08:23:15.429Z,24.75
2018-03-04T08:25:44.516Z,25.90
2018-03-04T08:28:31.243Z,26.00
2018-03-04T08:31:00.353Z,24.92
2018-03-04T08:33:29.429Z,26.73
2018-03-04T08:35:58.541Z,25.08
2018-03-04T08:38:27.630Z,26.70
2018-03-04T08:40:57.469Z,26.17
2018-03-04T08:43:26.596Z,25.77
2018-03-04T08:45:55.678Z,24.92
2018-03-04T08:48:25.521Z,26.73
2018-03-04T08:50:54.618Z,27.50
2018-03-04T08:53:24.461Z,27.00
2018-03-04T08:55:53.573Z,26.60
2018-03-04T08:58:22.655Z,26.40
2018-03-04T09:00:52.505Z,26.33
2018-03-04T09:03:21.590Z,27.52
2018-03-04T09:05:50.661Z,27.48
2018-03-04T09:08:19.744Z,29.35
2018-03-04T09:10:48.855Z,26.55
2018-03-04T09:13:17.933Z,27.62
2018-03-04T09:15:47.781Z,27.10
2018-03-04T09:18:16.856Z,28.33
2018-03-04T09:20:45.937Z,28.67
2018-03-04T09:23:15.093Z,26.45
2018-03-04T09:25:44.929Z,28.20
2018-03-04T09:28:14.781Z,26.95
2018-03-04T09:30:43.882Z,28.60
2018-03-04T09:33:12.980Z,27.20
2018-03-04T09:35:42.083Z,30.48
2018-03-04T09:38:12.070Z,27.73
2018-03-04T09:40:41.152Z,29.02
2018-03-04T09:43:10.251Z,29.83
2018-03-04T09:45:39.367Z,30.20
2018-03-04T09:48:08.473Z,28.62
2018-03-04T09:50:37.618Z,30.27
2018-03-04T09:53:06.693Z,28.40
2018-03-04T09:55:35.769Z,29.10
2018-03-04T09:58:04.874Z,30.95
2018-03-04T10:00:33.958Z,31.50
2018-03-04T10:03:03.062Z,33.05
2018-03-04T10:05:32.198Z,31.70
2018-03-04T10:08:01.311Z,32.17
2018-03-04T10:10:30.661Z,31.83
2018-03-04T10:13:00.514Z,31.35
2018-03-04T10:15:29.594Z,31.50
2018-03-04T10:17:59.446Z,30.10
2018-03-04T10:20:28.568Z,32.50
2018-03-04T10:22:57.634Z,30.85
2018-03-04T10:25:27.530Z,30.27
2018-03-04T10:27:56.621Z,33.80
2018-03-04T10:30:25.716Z,31.60
2018-03-04T10:32:54.787Z,41.03
2018-03-04T10:35:23.909Z,31.77
2018-03-04T10:37:53.773Z,30.85
2018-03-04T10:40:22.838Z,32.03
2018-03-04T10:42:51.905Z,35.22
2018-03-04T10:45:21.056Z,45.72
2018-03-04T10:47:50.104Z,33.20
2018-03-04T10:50:19.331Z,34.40
2018-03-04T10:52:48.403Z,34.13
2018-03-04T10:55:18.277Z,33.13
2018-03-04T10:57:47.342Z,35.10
2018-03-04T11:00:16.468Z,34.45
2018-03-04T11:02:45.558Z,33.65
2018-03-04T11:05:15.419Z,34.35
2018-03-04T11:07:44.492Z,33.45
2018-03-04T11:10:14.381Z,33.15
2018-03-04T11:12:43.445Z,31.85
2018-03-04T11:15:13.346Z,32.58
2018-03-04T11:17:43.242Z,35.97
2018-03-04T11:20:12.310Z,35.45
2018-03-04T11:22:42.217Z,33.65
2018-03-04T11:25:11.294Z,33.63
2018-03-04T11:27:40.365Z,35.45
2018-03-04T11:30:09.434Z,36.13
2018-03-04T11:32:38.525Z,32.55
2018-03-04T11:35:07.594Z,34.03
2018-03-04T11:37:37.434Z,34.30
2018-03-04T11:40:06.520Z,36.72
2018-03-04T11:42:36.351Z,35.35
2018-03-04T11:45:06.207Z,38.22
2018-03-04T11:47:35.282Z,36.42
2018-03-04T11:50:05.113Z,33.45
2018-03-04T11:52:35.074Z,36.55
2018-03-04T11:55:04.163Z,35.35
2018-03-04T11:57:33.989Z,36.72
2018-03-04T12:00:03.858Z,36.97
2018-03-04T12:02:32.930Z,35.55
2018-03-04T12:05:02.775Z,37.42
2018-03-04T12:07:31.854Z,46.53
2018-03-04T12:10:01.822Z,39.20
2018-03-04T12:12:30.895Z,37.05
2018-03-04T12:15:00.829Z,35.80
2018-03-04T12:17:30.666Z,36.05
2018-03-04T12:20:00.555Z,38.88
2018-03-04T12:22:29.625Z,38.88
2018-03-04T12:24:58.698Z,36.80
2018-03-04T12:27:28.593Z,37.63
2018-03-04T12:29:58.465Z,37.38
2018-03-04T12:32:28.322Z,36.65
2018-03-04T12:34:57.391Z,38.15
2018-03-04T12:37:27.293Z,39.20
2018-03-04T12:39:56.361Z,37.80
2018-03-04T12:42:25.422Z,35.80
2018-03-04T12:44:54.490Z,35.55
2018-03-04T12:47:23.557Z,37.13
2018-03-04T12:49:53.437Z,38.85
2018-03-04T12:52:22.510Z,37.17
2018-03-04T12:54:51.605Z,37.25
2018-03-04T12:57:20.707Z,37.13
2018-03-04T12:59:50.549Z,37.83
2018-03-04T13:02:20.426Z,37.67
2018-03-04T13:04:49.494Z,36.20
2018-03-04T13:07:19.329Z,35.13
2018-03-04T13:09:49.198Z,38.20
2018-03-04T13:12:18.262Z,35.78
2018-03-04T13:14:48.094Z,36.47
2018-03-04T13:17:17.198Z,36.05
2018-03-04T13:19:47.025Z,37.80
2018-03-04T13:22:16.925Z,38.00
2018-03-04T13:24:45.998Z,36.22
2018-03-04T13:27:15.062Z,45.65
2018-03-04T13:29:44.209Z,34.95
2018-03-04T13:32:13.278Z,36.47
2018-03-04T13:34:42.338Z,38.20
2018-03-04T13:37:11.398Z,36.65
2018-03-04T13:39:40.471Z,37.00
2018-03-04T13:42:09.574Z,33.53
2018-03-04T13:44:38.642Z,35.90
2018-03-04T13:47:08.473Z,35.83
2018-03-04T13:49:38.310Z,36.53
2018-03-04T13:52:07.381Z,35.25
2018-03-04T13:54:36.481Z,35.50
2018-03-04T13:57:05.547Z,35.20
2018-03-04T13:59:34.623Z,36.53
2018-03-04T14:02:03.695Z,35.03
2018-03-04T14:04:32.769Z,34.75
2018-03-04T14:07:01.862Z,37.45
2018-03-04T14:09:31.694Z,36.83
2018-03-04T14:12:01.545Z,37.90
2018-03-04T14:14:30.633Z,38.10
2018-03-04T14:17:00.464Z,36.03
2018-03-04T14:19:30.374Z,37.60
2018-03-04T14:21:59.450Z,35.80
2018-03-04T14:24:28.879Z,38.22
2018-03-04T14:26:57.954Z,37.05
2018-03-04T14:29:27.157Z,37.17
2018-03-04T14:31:56.462Z,37.15
2018-03-04T14:34:26.290Z,37.03
2018-03-04T14:36:56.220Z,36.20
2018-03-04T14:39:25.315Z,34.67
2018-03-04T14:41:54.443Z,36.33
2018-03-04T14:44:23.526Z,37.25
2018-03-04T14:46:53.067Z,35.65
2018-03-04T14:49:22.905Z,36.08
2018-03-04T14:51:52.035Z,35.63
2018-03-04T14:54:21.137Z,37.20
2018-03-04T14:56:50.201Z,34.92
2018-03-04T14:59:19.274Z,36.45
2018-03-04T15:01:48.581Z,34.40
2018-03-04T15:04:17.646Z,36.75
2018-03-04T15:06:47.481Z,38.13
2018-03-04T15:09:17.314Z,37.67
2018-03-04T15:11:47.209Z,36.42
2018-03-04T15:14:16.276Z,36.40
2018-03-04T15:16:45.348Z,36.75
2018-03-04T15:19:14.453Z,38.58
2018-03-04T15:21:43.558Z,36.40
2018-03-04T15:24:12.623Z,35.28
2018-03-04T15:26:41.711Z,36.22
2018-03-04T15:29:11.549Z,34.15
2018-03-04T15:31:40.614Z,34.22
2018-03-04T15:34:09.721Z,35.38
2018-03-04T15:36:38.787Z,38.47
2018-03-04T15:39:07.927Z,36.40
2018-03-04T15:41:37.013Z,36.15
2018-03-04T15:44:06.117Z,34.90
2018-03-04T15:46:35.188Z,34.92
2018-03-04T15:49:05.035Z,37.45
2018-03-04T15:51:34.875Z,34.05
2018-03-04T15:54:03.947Z,36.08
2018-03-04T15:56:33.113Z,37.00
2018-03-04T15:59:02.202Z,35.42
2018-03-04T16:01:31.309Z,36.22
2018-03-04T16:04:00.382Z,36.10
2018-03-04T16:06:29.454Z,32.80
2018-03-04T16:08:58.650Z,37.17
2018-03-04T16:11:27.722Z,36.90
2018-03-04T16:13:57.553Z,34.03
2018-03-04T16:16:26.617Z,35.30
2018-03-04T16:18:55.682Z,34.63
2018-03-04T16:21:25.526Z,34.63
2018-03-04T16:23:54.618Z,33.90
2018-03-04T16:26:24.525Z,33.95
2018-03-04T16:28:53.601Z,39.80
2018-03-04T16:31:22.702Z,40.65
2018-03-04T16:33:51.768Z,36.42
2018-03-04T16:36:20.869Z,36.00
2018-03-04T16:38:49.930Z,33.42
2018-03-04T16:41:18.999Z,34.60
2018-03-04T16:43:48.092Z,37.72
2018-03-04T16:46:17.153Z,36.55
2018-03-04T16:48:46.249Z,39.75
2018-03-04T16:51:16.090Z,36.97
2018-03-04T16:53:45.194Z,33.33
2018-03-04T16:56:15.126Z,36.60
2018-03-04T16:58:44.195Z,45.22
2018-03-04T17:01:13.293Z,38.10
2018-03-04T17:03:42.360Z,35.60
2018-03-04T17:06:11.486Z,34.10
2018-03-04T17:08:40.554Z,36.20
2018-03-04T17:11:10.397Z,31.55
2018-03-04T17:13:39.471Z,38.15
2018-03-04T17:16:08.578Z,49.65
2018-03-04T17:18:37.674Z,33.05
2018-03-04T17:21:06.739Z,29.98
2018-03-04T17:23:35.817Z,36.28
2018-03-04T17:26:04.881Z,33.15
2018-03-04T17:28:34.027Z,34.85
2018-03-04T17:31:03.097Z,31.08
2018-03-04T17:33:32.174Z,68.12
2018-03-04T17:36:02.018Z,29.85
2018-03-04T17:38:31.154Z,46.30
2018-03-04T17:41:00.243Z,88.43
2018-03-04T17:43:29.326Z,59.63
2018-03-04T17:45:59.165Z,37.78
2018-03-04T17:48:29.081Z,29.50
2018-03-04T17:50:58.191Z,30.17
2018-03-04T17:53:27.286Z,32.25
2018-03-04T17:55:56.381Z,29.35
2018-03-04T17:58:25.458Z,28.95
2018-03-04T18:00:54.570Z,35.35
2018-03-04T18:03:23.665Z,51.55
2018-03-04T18:05:52.734Z,37.25
2018-03-04T18:08:21.849Z,33.75
2018-03-04T18:10:50.919Z,34.35
2018-03-04T18:13:20.049Z,34.00
2018-03-04T18:15:49.118Z,31.83
2018-03-04T18:18:18.183Z,32.10
2018-03-04T18:20:47.330Z,30.83
2018-03-04T18:23:16.405Z,30.90
2018-03-04T18:25:45.562Z,31.87
2018-03-04T18:28:14.625Z,40.35
2018-03-04T18:30:43.702Z,52.20
2018-03-04T18:33:12.813Z,33.97
2018-03-04T18:35:41.887Z,35.83
2018-03-04T18:38:11.721Z,31.98
2018-03-04T18:40:41.558Z,63.70
2018-03-04T18:43:10.630Z,37.20
2018-03-04T18:45:39.717Z,33.40
2018-03-04T18:48:09.560Z,35.55
2018-03-04T18:50:38.733Z,35.67
2018-03-04T18:53:09.106Z,32.90
2018-03-04T18:55:38.178Z,38.53
2018-03-04T18:58:07.253Z,34.35
2018-03-04T19:00:37.114Z,36.88
2018-03-04T19:03:06.209Z,37.78
2018-03-04T19:05:36.048Z,31.65
2018-03-04T19:08:05.146Z,31.73
2018-03-04T19:10:34.986Z,32.83
2018-03-04T19:13:04.057Z,39.55
2018-03-04T19:15:33.134Z,36.22
2018-03-04T19:18:02.209Z,39.60
2018-03-04T19:20:31.349Z,36.78
2018-03-04T19:23:00.441Z,36.92
2018-03-04T19:25:29.578Z,43.03
2018-03-04T19:27:58.657Z,37.47
2018-03-04T19:30:27.816Z,39.58
2018-03-04T19:32:56.896Z,35.78
2018-03-04T19:35:25.970Z,40.05
2018-03-04T19:37:55.822Z,35.13
2018-03-04T19:40:24.901Z,34.40
2018-03-04T19:42:54.746Z,34.13
2018-03-04T19:45:23.817Z,41.58
2018-03-04T19:47:52.902Z,35.17
2018-03-04T19:50:21.990Z,34.22
2018-03-04T19:52:51.134Z,34.75
2018-03-04T19:55:20.234Z,35.38
2018-03-04T19:57:49.309Z,38.63
2018-03-04T20:00:18.396Z,34.25
2018-03-04T20:02:48.274Z,34.35
2018-03-04T20:05:17.349Z,34.42
2018-03-04T20:07:47.250Z,36.55
2018-03-04T20:10:16.334Z,38.40
2018-03-04T20:12:45.434Z,36.38
2018-03-04T20:15:14.517Z,36.13
2018-03-04T20:17:43.593Z,38.30
2018-03-04T20:20:12.701Z,37.95
2018-03-04T20:22:41.852Z,36.17
2018-03-04T20:25:13.081Z,34.58
2018-03-04T20:27:42.162Z,36.40
2018-03-04T20:30:11.250Z,37.55
2018-03-04T20:32:40.346Z,38.90
2018-03-04T20:35:09.433Z,37.20
2018-03-04T20:37:39.341Z,37.00
2018-03-04T20:40:08.447Z,39.42
2018-03-04T20:42:37.530Z,39.28
2018-03-04T20:45:06.634Z,39.72
2018-03-04T20:47:35.709Z,36.58
2018-03-04T20:50:05.585Z,36.35
2018-03-04T20:52:34.687Z,34.85
2018-03-04T20:55:03.778Z,35.33
2018-03-04T20:57:32.922Z,39.50
2018-03-04T21:00:02.002Z,35.63
2018-03-04T21:02:31.141Z,35.80
2018-03-04T21:05:00.286Z,36.75
2018-03-04T21:07:29.379Z,36.83
2018-03-04T21:09:58.466Z,36.78
2018-03-04T21:12:27.729Z,37.30
2018-03-04T21:14:57.590Z,33.88
2018-03-04T21:17:26.664Z,35.38
2018-03-04T21:19:56.564Z,36.08
2018-03-04T21:22:25.689Z,35.05
2018-03-04T21:24:54.778Z,34.50
2018-03-04T21:27:23.863Z,36.67
2018-03-04T21:29:52.993Z,35.92
2018-03-04T21:32:22.099Z,36.60
2018-03-04T21:34:51.207Z,34.10
2018-03-04T21:37:20.298Z,37.35
2018-03-04T21:39:49.377Z,34.90
2018-03-04T21:42:19.229Z,36.83
2018-03-04T21:44:48.316Z,34.33
2018-03-04T21:47:18.184Z,34.95
2018-03-04T21:49:47.265Z,33.38
2018-03-04T21:52:17.138Z,35.20
2018-03-04T21:54:46.225Z,33.75
2018-03-04T21:57:15.305Z,33.40
2018-03-04T21:59:45.226Z,34.35
2018-03-04T22:02:14.306Z,35.20
2018-03-04T22:04:43.386Z,34.47
2018-03-04T22:07:12.485Z,33.78
2018-03-04T22:09:41.618Z,33.80
2018-03-04T22:12:10.697Z,34.88
2018-03-04T22:14:40.550Z,32.83
2018-03-04T22:17:09.629Z,33.55
2018-03-04T22:19:39.541Z,33.22
2018-03-04T22:22:08.620Z,33.90
2018-03-04T22:24:37.703Z,34.03
2018-03-04T22:27:06.786Z,34.50
2018-03-04T22:29:36.639Z,35.10
2018-03-04T22:32:05.755Z,32.13
2018-03-04T22:34:34.846Z,33.30
2018-03-04T22:37:03.927Z,34.33
2018-03-04T22:39:33.005Z,32.97
2018-03-04T22:42:02.083Z,35.10
2018-03-04T22:44:31.157Z,32.30
2018-03-04T22:47:00.289Z,35.45
2018-03-04T22:49:29.369Z,35.30
2018-03-04T22:51:58.449Z,36.53
2018-03-04T22:54:27.558Z,34.00
2018-03-04T22:56:56.640Z,34.90
2018-03-04T22:59:25.786Z,32.78
2018-03-04T23:01:54.862Z,32.45
2018-03-04T23:04:23.942Z,34.15
2018-03-04T23:06:54.622Z,32.83
2018-03-04T23:09:23.702Z,33.15
2018-03-04T23:11:52.776Z,33.45
2018-03-04T23:14:22.653Z,32.70
2018-03-04T23:16:52.513Z,33.85
2018-03-04T23:19:21.602Z,33.92
2018-03-04T23:21:50.746Z,33.03
2018-03-04T23:24:19.829Z,35.80
2018-03-04T23:26:48.910Z,33.03
2018-03-04T23:29:18.793Z,35.35
2018-03-04T23:31:47.874Z,35.72
2018-03-04T23:34:16.954Z,33.45
2018-03-04T23:36:46.798Z,34.60
2018-03-04T23:39:16.642Z,32.90
2018-03-04T23:41:45.715Z,32.58
2018-03-04T23:44:14.861Z,33.03
2018-03-04T23:46:43.974Z,31.08
2018-03-04T23:49:13.055Z,33.45
2018-03-04T23:51:42.953Z,32.78
2018-03-04T23:54:12.032Z,31.12
2018-03-04T23:56:41.119Z,32.92
2018-03-04T23:59:11.214Z,34.47
